< < Back
Terminal Aerodrome Forecast


Current Version              Previous Versions:   1  2  3  4  5  6  7  8  9  

Terminal Aerodrome Forecast

375
FTUS44 KOHX 032100 AAA
TAFCSV
TAF AMD
KCSV 032101Z 0321/0418 VRB06KT P6SM SCT060 SCT250
     FM040000 00000KT P6SM SKC
     FM041400 19004KT P6SM SCT060 SCT250=



Latest METAR

271
SAUS70 KWBC 041000 RRB
MTRCSV
METAR KCSV 040953Z AUTO 00000KT 10SM CLR 11/07 A3024 RMK AO2 SLP227
T01110072


USA.gov is the U.S. government's official web portal to all federal, state and local government web resources and services.